Time;durP1;ratioP1;P1;durP2;ratioP2;P2;SDS_P1;SDS_P2;PMS_P1;PMS_P2;Temp;Humidity;BMP_temperature;BMP_pressure;BME280_temperature;BME280_humidity;BME280_pressure;Samples;Min_cycle;Max_cycle;Signal;HPM_P1;HPM_P2
2022/12/30 07:33:26;;;;;;;11.75;8.68;;;;;;;5.12;90.04;98073.86;1827705;78;20821;-63
2022/12/30 07:35:52;;;;;;;17.98;11.50;;;;;;;5.14;89.62;98073.08;1827752;78;20868;-63
2022/12/30 07:38:19;;;;;;;13.62;10.05;;;;;;;5.21;89.47;98082.16;1827868;78;20883;-60
2022/12/30 07:40:45;;;;;;;14.93;10.55;;;;;;;5.29;88.93;98083.84;1827864;78;20907;-62
2022/12/30 07:43:12;;;;;;;12.73;9.48;;;;;;;5.36;88.63;98086.27;1827745;78;21196;-62
2022/12/30 07:45:38;;;;;;;11.85;9.55;;;;;;;5.43;88.33;98087.66;1825817;77;20990;-62
2022/12/30 07:48:05;;;;;;;15.95;11.08;;;;;;;5.50;87.97;98088.25;1782581;80;20899;-61
2022/12/30 07:50:32;;;;;;;13.75;10.85;;;;;;;5.57;87.68;98089.87;1735094;82;20923;-59
2022/12/30 07:52:59;;;;;;;12.55;8.73;;;;;;;5.66;87.40;98096.30;1761200;80;20920;-62
2022/12/30 07:55:26;;;;;;;11.60;8.58;;;;;;;5.75;87.19;98096.90;1750413;82;21115;-60
2022/12/30 07:57:52;;;;;;;9.95;8.43;;;;;;;5.85;86.65;98093.53;1753615;80;20964;-58
2022/12/30 08:00:20;;;;;;;11.55;7.95;;;;;;;5.93;86.14;98097.86;1753940;80;21067;-61
2022/12/30 08:02:47;;;;;;;11.97;8.90;;;;;;;6.00;85.11;98105.59;1750294;80;20979;-62
2022/12/30 08:05:13;;;;;;;15.20;8.95;;;;;;;6.02;84.73;98096.83;1772239;80;20946;-62
2022/12/30 08:07:40;;;;;;;9.90;7.90;;;;;;;6.06;84.71;98099.23;1763724;81;21881;-62
2022/12/30 08:10:08;;;;;;;13.18;8.40;;;;;;;6.10;84.37;98101.67;1763747;81;21071;-59
2022/12/30 08:12:35;;;;;;;11.63;8.15;;;;;;;6.13;84.13;98091.83;1764583;79;21403;-58
2022/12/30 08:15:03;;;;;;;9.73;7.25;;;;;;;6.15;83.59;98101.14;1778345;78;20939;-62
2022/12/30 08:17:30;;;;;;;10.28;8.48;;;;;;;6.15;83.43;98099.01;1770759;80;21569;-63
2022/12/30 08:19:57;;;;;;;13.25;8.50;;;;;;;6.16;83.41;98092.12;1766469;80;22131;-62
2022/12/30 08:22:25;;;;;;;18.90;9.73;;;;;;;6.21;83.15;98101.98;1774340;79;21033;-63
2022/12/30 08:24:53;;;;;;;12.68;8.70;;;;;;;6.23;83.02;98105.17;1775927;80;20872;-62
2022/12/30 08:27:20;;;;;;;13.25;9.73;;;;;;;6.28;82.86;98110.52;1756949;80;21030;-61
2022/12/30 08:29:46;;;;;;;11.20;8.55;;;;;;;6.31;82.54;98112.67;1825077;78;20881;-65
2022/12/30 08:32:13;;;;;;;13.25;7.85;;;;;;;6.31;82.16;98118.52;1824902;78;21251;-60
2022/12/30 08:34:39;;;;;;;11.55;8.60;;;;;;;6.32;82.12;98123.56;1824356;77;21048;-62
2022/12/30 08:37:06;;;;;;;10.78;8.08;;;;;;;6.32;82.16;98120.91;1822973;77;21001;-61
2022/12/30 08:39:32;;;;;;;12.95;8.90;;;;;;;6.36;82.14;98122.53;1824061;78;20935;-63
2022/12/30 08:41:59;;;;;;;17.95;9.48;;;;;;;6.38;81.93;98123.88;1823771;78;21529;-63
2022/12/30 08:44:26;;;;;;;12.73;9.23;;;;;;;6.38;81.84;98123.88;1823271;78;21244;-61
2022/12/30 08:46:53;;;;;;;11.15;8.80;;;;;;;6.41;81.74;98129.98;1783586;80;20876;-61
2022/12/30 08:49:20;;;;;;;12.05;9.08;;;;;;;6.41;81.62;98123.33;1746848;82;20919;-63
2022/12/30 08:51:47;;;;;;;13.62;9.30;;;;;;;6.42;81.42;98126.28;1757172;81;20967;-63
2022/12/30 08:54:14;;;;;;;12.73;8.58;;;;;;;6.41;81.40;98122.00;1779199;80;20955;-60
2022/12/30 08:56:40;;;;;;;10.93;8.90;;;;;;;6.40;81.17;98125.75;1779504;80;21143;-60
2022/12/30 08:59:09;;;;;;;10.20;8.28;;;;;;;6.36;81.07;98117.98;1781010;79;21011;-61
2022/12/30 09:01:42;;;;;;;10.98;8.63;;;;;;;6.35;80.95;98125.72;1782261;79;21765;-62
2022/12/30 09:04:09;;;;;;;12.70;9.13;;;;;;;6.34;81.11;98122.77;1769576;80;20991;-60
2022/12/30 09:06:39;;;;;;;13.83;8.13;;;;;;;6.37;81.17;98118.27;1820289;78;21002;-57
2022/12/30 09:09:07;;;;;;;12.23;8.13;;;;;;;6.42;81.36;98113.50;1815228;79;21376;-58
2022/12/30 09:11:34;;;;;;;11.50;7.97;;;;;;;6.48;81.14;98113.25;1818313;77;20864;-59
2022/12/30 09:14:03;;;;;;;9.85;7.97;;;;;;;6.55;80.91;98115.14;1820548;78;20915;-59
